createdAt,value
2018-11-01T00:00:40.581Z,996.74
2018-11-01T00:01:40.580Z,996.76
2018-11-01T00:02:40.570Z,996.77
2018-11-01T00:03:40.568Z,996.80
2018-11-01T00:04:40.584Z,996.74
2018-11-01T00:05:40.543Z,996.79
2018-11-01T00:06:40.522Z,996.73
2018-11-01T00:07:40.551Z,996.75
2018-11-01T00:08:40.511Z,996.73
2018-11-01T00:09:40.546Z,996.75
2018-11-01T00:10:40.490Z,996.72
2018-11-01T00:11:40.480Z,996.77
2018-11-01T00:12:40.472Z,996.74
2018-11-01T00:13:40.496Z,996.73
2018-11-01T00:14:40.460Z,996.78
2018-11-01T00:15:40.468Z,996.75
2018-11-01T00:16:40.385Z,996.78
2018-11-01T00:17:40.377Z,996.70
2018-11-01T00:18:40.382Z,996.75
2018-11-01T00:19:40.349Z,996.75
2018-11-01T00:20:40.340Z,996.74
2018-11-01T00:21:40.325Z,996.69
2018-11-01T00:22:40.326Z,996.68
2018-11-01T00:23:40.333Z,996.70
2018-11-01T00:24:40.296Z,996.67
2018-11-01T00:25:40.290Z,996.69
2018-11-01T00:26:40.273Z,996.71
2018-11-01T00:27:40.282Z,996.68
2018-11-01T00:28:40.270Z,996.70
2018-11-01T00:29:40.266Z,996.70
2018-11-01T00:30:40.227Z,996.68
2018-11-01T00:31:40.218Z,996.74
2018-11-01T00:32:40.208Z,996.68
2018-11-01T00:33:40.217Z,996.68
2018-11-01T00:34:40.189Z,996.65
2018-11-01T00:35:40.178Z,996.62
2018-11-01T00:36:40.165Z,996.63
2018-11-01T00:37:40.157Z,996.59
2018-11-01T00:38:40.142Z,996.67
2018-11-01T00:39:40.148Z,996.64
2018-11-01T00:40:40.119Z,996.61
2018-11-01T00:41:40.106Z,996.68
2018-11-01T00:42:40.103Z,996.66
2018-11-01T00:43:40.107Z,996.61
2018-11-01T00:44:40.095Z,996.64
2018-11-01T00:45:40.082Z,996.62
2018-11-01T00:46:40.058Z,996.60
2018-11-01T00:47:40.048Z,996.60
2018-11-01T00:48:40.058Z,996.58
2018-11-01T00:49:40.031Z,996.57
2018-11-01T00:50:40.026Z,996.56
2018-11-01T00:51:40.001Z,996.53
2018-11-01T00:52:39.988Z,996.49
2018-11-01T00:53:39.975Z,996.48
2018-11-01T00:54:39.971Z,996.58
2018-11-01T00:55:39.976Z,996.60
2018-11-01T00:56:39.947Z,996.61
2018-11-01T00:57:39.939Z,996.56
2018-11-01T00:58:39.921Z,996.52
2018-11-01T00:59:39.930Z,996.53
2018-11-01T01:00:39.904Z,996.48
2018-11-01T01:01:39.895Z,996.45
2018-11-01T01:02:39.899Z,996.45
2018-11-01T01:03:39.873Z,996.42
2018-11-01T01:04:39.875Z,996.41
2018-11-01T01:05:39.844Z,996.34
2018-11-01T01:06:39.847Z,996.32
2018-11-01T01:07:39.828Z,996.34
2018-11-01T01:08:39.816Z,996.29
2018-11-01T01:09:39.833Z,996.32
2018-11-01T01:10:39.791Z,996.27
2018-11-01T01:11:39.781Z,996.29
2018-11-01T01:12:39.771Z,996.29
2018-11-01T01:13:39.759Z,996.31
2018-11-01T01:14:39.754Z,996.30
2018-11-01T01:15:39.758Z,996.28
2018-11-01T01:16:39.727Z,996.32
2018-11-01T01:17:39.714Z,996.32
2018-11-01T01:18:39.731Z,996.24
2018-11-01T01:19:39.735Z,996.28
2018-11-01T01:20:39.689Z,996.26
2018-11-01T01:21:39.677Z,996.28
2018-11-01T01:22:39.670Z,996.25
2018-11-01T01:23:39.656Z,996.33
2018-11-01T01:24:39.659Z,996.35
2018-11-01T01:25:39.650Z,996.41
2018-11-01T01:26:39.623Z,996.47
2018-11-01T01:27:39.616Z,996.47
2018-11-01T01:28:39.600Z,996.43
2018-11-01T01:29:39.591Z,996.49
2018-11-01T01:30:39.574Z,996.50
2018-11-01T01:31:39.582Z,996.48
2018-11-01T01:32:39.557Z,996.53
2018-11-01T01:33:39.547Z,996.52
2018-11-01T01:34:39.681Z,996.58
2018-11-01T01:35:39.520Z,996.55
2018-11-01T01:36:39.514Z,996.47
2018-11-01T01:37:39.497Z,996.44
2018-11-01T01:38:39.493Z,996.47
2018-11-01T01:39:39.497Z,996.49
2018-11-01T01:40:39.486Z,996.46
2018-11-01T01:41:39.461Z,996.44
2018-11-01T01:42:39.441Z,996.46
2018-11-01T01:43:39.434Z,996.60
2018-11-01T01:44:39.443Z,996.55
2018-11-01T01:45:39.412Z,996.59
2018-11-01T01:46:39.405Z,996.64
2018-11-01T01:47:39.392Z,996.64
2018-11-01T01:48:39.415Z,996.61
2018-11-01T01:49:39.385Z,996.57
2018-11-01T01:50:39.411Z,996.63
2018-11-01T01:51:39.349Z,996.62
2018-11-01T01:52:39.337Z,996.65
2018-11-01T01:53:39.329Z,996.66
2018-11-01T01:54:39.328Z,996.67
2018-11-01T01:55:39.303Z,996.70
2018-11-01T01:56:39.294Z,996.70
2018-11-01T01:57:39.280Z,996.69
2018-11-01T01:58:39.272Z,996.70
2018-11-01T01:59:39.281Z,996.71
2018-11-01T02:00:39.252Z,996.73
2018-11-01T02:01:39.239Z,996.73
2018-11-01T02:02:39.225Z,996.71
2018-11-01T02:03:39.217Z,996.74
2018-11-01T02:04:39.227Z,996.68
2018-11-01T02:05:39.197Z,996.69
2018-11-01T02:06:39.181Z,996.65
2018-11-01T02:07:39.169Z,996.62
2018-11-01T02:08:39.158Z,996.61
2018-11-01T02:09:39.166Z,996.55
2018-11-01T02:10:39.158Z,996.52
2018-11-01T02:11:39.149Z,996.51
2018-11-01T02:12:39.123Z,996.50
2018-11-01T02:13:39.110Z,996.44
2018-11-01T02:14:39.110Z,996.43
2018-11-01T02:15:39.081Z,996.38
2018-11-01T02:16:39.070Z,996.38
2018-11-01T02:17:39.084Z,996.32
2018-11-01T02:18:39.054Z,996.32
2018-11-01T02:19:39.044Z,996.30
2018-11-01T02:20:39.033Z,996.34
2018-11-01T02:21:39.019Z,996.30
2018-11-01T02:22:39.008Z,996.21
2018-11-01T02:23:39.018Z,996.26
2018-11-01T02:24:39.004Z,996.20
2018-11-01T02:25:38.981Z,996.18
2018-11-01T02:26:38.963Z,996.12
2018-11-01T02:27:38.950Z,996.16
2018-11-01T02:28:38.957Z,996.11
2018-11-01T02:29:38.948Z,996.06
2018-11-01T02:30:47.188Z,996.12
2018-11-01T02:31:38.911Z,996.07
2018-11-01T02:32:38.903Z,996.10
2018-11-01T02:33:38.900Z,996.08
2018-11-01T02:34:38.899Z,996.12
2018-11-01T02:35:38.867Z,996.14
2018-11-01T02:36:38.856Z,996.20
2018-11-01T02:37:38.887Z,996.20
2018-11-01T02:38:38.949Z,996.27
2018-11-01T02:39:38.822Z,996.26
2018-11-01T02:40:38.837Z,996.26
2018-11-01T02:41:38.799Z,996.27
2018-11-01T02:42:38.813Z,996.28
2018-11-01T02:43:38.780Z,996.25
2018-11-01T02:44:38.769Z,996.26
2018-11-01T02:45:38.778Z,996.25
2018-11-01T02:46:38.743Z,996.26
2018-11-01T02:47:38.735Z,996.23
2018-11-01T02:48:38.726Z,996.17
2018-11-01T02:49:38.729Z,996.14
2018-11-01T02:50:38.708Z,996.12
2018-11-01T02:51:38.693Z,996.00
2018-11-01T02:52:38.686Z,995.93
2018-11-01T02:53:38.668Z,995.92
2018-11-01T02:54:38.682Z,995.83
2018-11-01T02:55:38.677Z,995.85
2018-11-01T02:56:38.639Z,995.77
2018-11-01T02:57:38.631Z,995.77
2018-11-01T02:58:38.613Z,995.80
2018-11-01T02:59:38.614Z,995.79
2018-11-01T03:00:38.611Z,995.85
2018-11-01T03:01:38.590Z,995.87
2018-11-01T03:02:38.584Z,995.94
2018-11-01T03:03:38.563Z,995.94
2018-11-01T03:04:38.554Z,995.93
2018-11-01T03:05:38.561Z,995.95
2018-11-01T03:06:38.527Z,995.96
2018-11-01T03:07:38.523Z,995.98
2018-11-01T03:08:38.509Z,995.93
2018-11-01T03:09:38.518Z,995.96
2018-11-01T03:10:38.502Z,995.95
2018-11-01T03:11:38.476Z,995.97
2018-11-01T03:12:38.463Z,995.96
2018-11-01T03:13:38.453Z,995.95
2018-11-01T03:14:38.454Z,996.00
2018-11-01T03:15:38.452Z,995.99
2018-11-01T03:16:38.422Z,996.04
2018-11-01T03:17:38.416Z,996.08
2018-11-01T03:18:38.396Z,996.09
2018-11-01T03:19:38.407Z,996.11
2018-11-01T03:20:38.381Z,996.03
2018-11-01T03:21:38.423Z,996.00
2018-11-01T03:22:38.359Z,995.94
2018-11-01T03:23:38.346Z,995.91
2018-11-01T03:24:38.351Z,995.85
2018-11-01T03:25:38.319Z,995.82
2018-11-01T03:26:38.343Z,995.85
2018-11-01T03:27:38.304Z,995.87
2018-11-01T03:28:38.291Z,995.93
2018-11-01T03:29:38.306Z,995.93
2018-11-01T03:30:38.265Z,995.95
2018-11-01T03:31:38.282Z,995.94
2018-11-01T03:32:38.260Z,995.94
2018-11-01T03:33:38.233Z,995.89
2018-11-01T03:34:38.259Z,995.88
2018-11-01T03:35:38.218Z,995.96
2018-11-01T03:36:38.221Z,995.92
2018-11-01T03:37:38.197Z,995.92
2018-11-01T03:38:38.241Z,995.86
2018-11-01T03:39:38.189Z,995.83
2018-11-01T03:40:38.164Z,995.83
2018-11-01T03:41:38.154Z,995.87
2018-11-01T03:42:38.140Z,995.82
2018-11-01T03:43:38.135Z,995.83
2018-11-01T03:44:38.136Z,995.89
2018-11-01T03:45:38.204Z,995.93
2018-11-01T03:46:38.099Z,995.95
2018-11-01T03:47:38.089Z,995.94
2018-11-01T03:48:38.075Z,995.95
2018-11-01T03:49:38.074Z,995.94
2018-11-01T03:50:38.049Z,995.96
2018-11-01T03:51:38.112Z,995.95
2018-11-01T03:52:38.031Z,995.96
2018-11-01T03:53:38.141Z,995.98
2018-11-01T03:54:38.112Z,996.03
2018-11-01T03:55:38.001Z,996.07
2018-11-01T03:56:38.098Z,996.08
2018-11-01T03:57:37.987Z,996.09
2018-11-01T03:58:37.973Z,996.05
2018-11-01T03:59:37.975Z,996.02
2018-11-01T04:00:37.946Z,996.03
2018-11-01T04:01:37.954Z,995.99
2018-11-01T04:02:37.936Z,995.98
2018-11-01T04:03:37.944Z,995.97
2018-11-01T04:04:37.899Z,996.02
2018-11-01T04:05:37.887Z,995.98
2018-11-01T04:06:37.881Z,995.93
2018-11-01T04:07:37.870Z,995.90
2018-11-01T04:08:37.879Z,995.90
2018-11-01T04:09:37.866Z,995.83
2018-11-01T04:10:37.832Z,995.78
2018-11-01T04:11:37.848Z,995.76
2018-11-01T04:12:37.813Z,995.72
2018-11-01T04:13:37.907Z,995.69
2018-11-01T04:14:37.788Z,995.71
2018-11-01T04:15:37.778Z,995.64
2018-11-01T04:16:37.834Z,995.68
2018-11-01T04:17:37.756Z,995.63
2018-11-01T04:18:37.764Z,995.63
2018-11-01T04:19:37.772Z,995.59
2018-11-01T04:20:37.726Z,995.68
2018-11-01T04:21:37.717Z,995.61
2018-11-01T04:22:37.700Z,995.54
2018-11-01T04:23:37.692Z,995.55
2018-11-01T04:24:37.681Z,995.55
2018-11-01T04:25:37.693Z,995.52
2018-11-01T04:26:37.667Z,995.47
2018-11-01T04:27:37.650Z,995.40
2018-11-01T04:28:37.640Z,995.38
2018-11-01T04:29:37.661Z,995.37
2018-11-01T04:30:37.646Z,995.37
2018-11-01T04:31:37.611Z,995.32
2018-11-01T04:32:37.595Z,995.31
2018-11-01T04:33:37.798Z,995.28
2018-11-01T04:34:37.568Z,995.27
2018-11-01T04:35:37.567Z,995.24
2018-11-01T04:36:37.564Z,995.31
2018-11-01T04:37:37.536Z,995.28
2018-11-01T04:38:37.531Z,995.33
2018-11-01T04:39:37.519Z,995.30
2018-11-01T04:40:37.599Z,995.34
2018-11-01T04:41:37.498Z,995.27
2018-11-01T04:42:37.525Z,995.31
2018-11-01T04:43:37.473Z,995.32
2018-11-01T04:44:37.463Z,995.38
2018-11-01T04:45:37.473Z,995.35
2018-11-01T04:46:37.440Z,995.40
2018-11-01T04:47:37.514Z,995.45
2018-11-01T04:48:37.418Z,995.44
2018-11-01T04:49:37.411Z,995.49
2018-11-01T04:50:37.399Z,995.53
2018-11-01T04:51:37.386Z,995.54
2018-11-01T04:52:37.395Z,995.57
2018-11-01T04:53:37.367Z,995.58
2018-11-01T04:54:37.348Z,995.62
2018-11-01T04:55:37.341Z,995.68
2018-11-01T04:56:37.329Z,995.65
2018-11-01T04:57:37.333Z,995.67
2018-11-01T04:58:37.312Z,995.62
2018-11-01T04:59:37.317Z,995.68
2018-11-01T05:00:37.303Z,995.69
2018-11-01T05:01:37.272Z,995.73
2018-11-01T05:02:37.287Z,995.67
2018-11-01T05:03:37.277Z,995.67
2018-11-01T05:04:37.246Z,995.65
2018-11-01T05:05:37.237Z,995.61
2018-11-01T05:06:37.274Z,995.58
2018-11-01T05:07:37.272Z,995.57
2018-11-01T05:08:37.200Z,995.54
2018-11-01T05:09:37.187Z,995.57
2018-11-01T05:10:37.183Z,995.56
2018-11-01T05:11:37.188Z,995.53
2018-11-01T05:12:37.168Z,995.47
2018-11-01T05:13:37.151Z,995.50
2018-11-01T05:14:37.133Z,995.50
2018-11-01T05:15:37.142Z,995.55
2018-11-01T05:16:37.116Z,995.53
2018-11-01T05:17:37.217Z,995.54
2018-11-01T05:18:37.114Z,995.58
2018-11-01T05:19:37.085Z,995.57
2018-11-01T05:20:37.072Z,995.63
2018-11-01T05:21:37.063Z,995.63
2018-11-01T05:22:37.061Z,995.66
2018-11-01T05:23:37.164Z,995.66
2018-11-01T05:24:37.036Z,995.64
2018-11-01T05:25:37.029Z,995.57
2018-11-01T05:26:37.006Z,995.64
2018-11-01T05:27:36.996Z,995.58
2018-11-01T05:28:37.003Z,995.53
2018-11-01T05:29:37.058Z,995.51
2018-11-01T05:30:36.973Z,995.47
2018-11-01T05:31:36.956Z,995.47
2018-11-01T05:32:36.964Z,995.42
2018-11-01T05:33:36.932Z,995.42
2018-11-01T05:34:36.927Z,995.41
2018-11-01T05:35:37.081Z,995.43
2018-11-01T05:36:36.904Z,995.42
2018-11-01T05:37:37.069Z,995.41
2018-11-01T05:38:36.878Z,995.48
2018-11-01T05:39:36.878Z,995.44
2018-11-01T05:40:36.882Z,995.51
2018-11-01T05:41:36.848Z,995.48
2018-11-01T05:42:36.860Z,995.46
2018-11-01T05:43:36.829Z,995.47
2018-11-01T05:44:36.821Z,995.56
2018-11-01T05:45:37.255Z,995.53
2018-11-01T05:46:36.810Z,995.54
2018-11-01T05:47:36.785Z,995.60
2018-11-01T05:48:36.776Z,995.57
2018-11-01T05:49:36.767Z,995.61
2018-11-01T05:50:36.753Z,995.62
2018-11-01T05:51:36.759Z,995.57
2018-11-01T05:52:36.730Z,995.68
2018-11-01T05:53:36.717Z,995.72
2018-11-01T05:54:36.709Z,995.68
2018-11-01T05:55:36.718Z,995.73
2018-11-01T05:56:36.697Z,995.69
2018-11-01T05:57:36.699Z,995.71
2018-11-01T05:58:36.665Z,995.69
2018-11-01T05:59:36.661Z,995.69
2018-11-01T06:00:36.652Z,995.63
2018-11-01T06:01:36.641Z,995.73
2018-11-01T06:02:36.624Z,995.66
2018-11-01T06:03:36.629Z,995.67
2018-11-01T06:04:36.619Z,995.68
2018-11-01T06:05:36.647Z,995.64
2018-11-01T06:06:36.581Z,995.66
2018-11-01T06:07:36.571Z,995.66
2018-11-01T06:08:36.582Z,995.65
2018-11-01T06:09:36.559Z,995.64
2018-11-01T06:10:36.559Z,995.67
2018-11-01T06:11:36.531Z,995.66
2018-11-01T06:12:36.514Z,995.60
2018-11-01T06:13:36.509Z,995.60
2018-11-01T06:14:36.524Z,995.61
2018-11-01T06:15:36.484Z,995.64
2018-11-01T06:16:36.475Z,995.56
2018-11-01T06:17:36.472Z,995.61
2018-11-01T06:18:36.455Z,995.56
2018-11-01T06:19:36.443Z,995.53
2018-11-01T06:20:36.526Z,995.53
2018-11-01T06:21:36.437Z,995.55
2018-11-01T06:22:36.412Z,995.56
2018-11-01T06:23:36.397Z,995.57
2018-11-01T06:24:36.385Z,995.62
2018-11-01T06:25:36.408Z,995.57
2018-11-01T06:26:36.365Z,995.59
2018-11-01T06:27:36.363Z,995.59
2018-11-01T06:28:36.348Z,995.60
2018-11-01T06:29:36.338Z,995.57
2018-11-01T06:30:36.323Z,995.59
2018-11-01T06:31:36.333Z,995.62
2018-11-01T06:32:36.306Z,995.62
2018-11-01T06:33:36.314Z,995.66
2018-11-01T06:34:36.282Z,995.71
2018-11-01T06:35:36.276Z,995.71
2018-11-01T06:36:36.256Z,995.77
2018-11-01T06:37:36.249Z,995.80
2018-11-01T06:38:36.259Z,995.76
2018-11-01T06:39:36.229Z,995.76
2018-11-01T06:40:36.224Z,995.75
2018-11-01T06:41:36.221Z,995.74
2018-11-01T06:42:36.197Z,995.72
2018-11-01T06:43:36.201Z,995.68
2018-11-01T06:44:36.253Z,995.64
2018-11-01T06:45:36.197Z,995.61
2018-11-01T06:46:36.154Z,995.58
2018-11-01T06:47:36.140Z,995.56
2018-11-01T06:48:36.165Z,995.53
2018-11-01T06:49:36.117Z,995.55
2018-11-01T06:50:36.109Z,995.54
2018-11-01T06:51:36.102Z,995.54
2018-11-01T06:52:36.160Z,995.50
2018-11-01T06:53:36.098Z,995.55
2018-11-01T06:54:36.069Z,995.57
2018-11-01T06:55:36.056Z,995.56
2018-11-01T06:56:36.043Z,995.63
2018-11-01T06:57:36.034Z,995.60
2018-11-01T06:58:36.229Z,995.59
2018-11-01T06:59:36.171Z,995.56
2018-11-01T07:00:36.036Z,995.57
2018-11-01T07:01:35.993Z,995.57
2018-11-01T07:02:35.992Z,995.55
2018-11-01T07:03:35.980Z,995.52
2018-11-01T07:04:35.968Z,995.52
2018-11-01T07:05:36.012Z,995.51
2018-11-01T07:06:35.957Z,995.45
2018-11-01T07:07:35.932Z,995.37
2018-11-01T07:08:35.915Z,995.38
2018-11-01T07:09:35.921Z,995.36
2018-11-01T07:10:35.894Z,995.37
2018-11-01T07:11:36.055Z,995.34
2018-11-01T07:12:37.410Z,995.33
2018-11-01T07:13:35.865Z,995.33
2018-11-01T07:14:35.853Z,995.35
2018-11-01T07:15:35.842Z,995.35
2018-11-01T07:16:35.831Z,995.34
2018-11-01T07:17:36.006Z,995.34
2018-11-01T07:18:35.810Z,995.37
2018-11-01T07:19:35.798Z,995.36
2018-11-01T07:20:35.783Z,995.32
2018-11-01T07:21:35.897Z,995.35
2018-11-01T07:22:35.799Z,995.35
2018-11-01T07:23:35.793Z,995.41
2018-11-01T07:24:35.778Z,995.40
2018-11-01T07:25:35.939Z,995.43
2018-11-01T07:26:35.900Z,995.45
2018-11-01T07:27:35.736Z,995.37
2018-11-01T07:28:35.729Z,995.33
2018-11-01T07:29:35.730Z,995.34
2018-11-01T07:30:35.743Z,995.35
2018-11-01T07:31:35.668Z,995.35
2018-11-01T07:32:35.674Z,995.30
2018-11-01T07:33:35.647Z,995.26
2018-11-01T07:34:35.652Z,995.32
2018-11-01T07:35:35.625Z,995.28
2018-11-01T07:36:35.625Z,995.22
2018-11-01T07:37:35.606Z,995.21
2018-11-01T07:38:35.617Z,995.16
2018-11-01T07:39:35.579Z,995.16
2018-11-01T07:40:35.577Z,995.13
2018-11-01T07:41:35.556Z,995.16
2018-11-01T07:42:35.549Z,995.15
2018-11-01T07:43:35.987Z,995.16
2018-11-01T07:44:36.015Z,995.14
2018-11-01T07:45:36.612Z,995.13
2018-11-01T07:46:35.652Z,995.12
2018-11-01T07:47:35.494Z,995.11
2018-11-01T07:48:35.561Z,995.04
2018-11-01T07:49:35.477Z,995.07
2018-11-01T07:50:35.480Z,995.06
2018-11-01T07:51:35.478Z,995.17
2018-11-01T07:52:35.448Z,995.11
2018-11-01T07:53:35.426Z,995.18
2018-11-01T07:54:35.421Z,995.17
2018-11-01T07:55:35.443Z,995.20
2018-11-01T07:56:35.400Z,995.24
2018-11-01T07:57:35.389Z,995.27
2018-11-01T07:58:35.580Z,995.26
2018-11-01T07:59:35.367Z,995.21
2018-11-01T08:00:35.367Z,995.24
2018-11-01T08:01:35.355Z,995.27
2018-11-01T08:02:35.334Z,995.29
2018-11-01T08:03:35.322Z,995.22
2018-11-01T08:04:35.312Z,995.23
2018-11-01T08:05:35.342Z,995.24
2018-11-01T08:06:35.286Z,995.21
2018-11-01T08:07:35.278Z,995.21
2018-11-01T08:08:35.269Z,995.22
2018-11-01T08:09:35.258Z,995.19
2018-11-01T08:10:35.263Z,995.25
2018-11-01T08:11:35.253Z,995.24
2018-11-01T08:12:35.218Z,995.24
2018-11-01T08:13:35.213Z,995.20
2018-11-01T08:14:35.199Z,995.14
2018-11-01T08:15:35.206Z,995.15
2018-11-01T08:16:35.189Z,995.16
2018-11-01T08:17:35.171Z,995.10
2018-11-01T08:18:35.174Z,995.09
2018-11-01T08:19:35.220Z,995.08
2018-11-01T08:20:35.161Z,995.14
2018-11-01T08:21:35.132Z,995.13
2018-11-01T08:22:35.141Z,995.11
2018-11-01T08:23:35.100Z,995.09
2018-11-01T08:24:35.089Z,995.06
2018-11-01T08:25:35.085Z,995.05
2018-11-01T08:26:35.070Z,995.03
2018-11-01T08:27:35.114Z,995.01
2018-11-01T08:28:35.050Z,995.00
2018-11-01T08:29:35.041Z,995.03
2018-11-01T08:30:35.027Z,995.00
2018-11-01T08:31:35.017Z,995.02
2018-11-01T08:32:35.028Z,994.98
2018-11-01T08:33:34.988Z,994.97
2018-11-01T08:34:34.980Z,994.91
2018-11-01T08:35:34.999Z,994.85
2018-11-01T08:36:34.965Z,994.87
2018-11-01T08:37:34.951Z,994.84
2018-11-01T08:38:34.980Z,994.78
2018-11-01T08:39:34.966Z,994.73
2018-11-01T08:40:34.971Z,994.81
2018-11-01T08:41:34.927Z,994.78
2018-11-01T08:42:34.896Z,994.75
2018-11-01T08:43:34.886Z,994.68
2018-11-01T08:44:34.873Z,994.63
2018-11-01T08:45:34.861Z,994.62
2018-11-01T08:46:34.862Z,994.59
2018-11-01T08:47:34.880Z,994.55
2018-11-01T08:48:34.845Z,994.57
2018-11-01T08:49:34.933Z,994.53
2018-11-01T08:50:34.811Z,994.51
2018-11-01T08:51:34.792Z,994.54
2018-11-01T08:52:34.782Z,994.51
2018-11-01T08:53:34.793Z,994.47
2018-11-01T08:54:34.767Z,994.46
2018-11-01T08:55:34.747Z,994.51
2018-11-01T08:56:34.740Z,994.51
2018-11-01T08:57:34.746Z,994.54
2018-11-01T08:58:34.714Z,994.54
2018-11-01T08:59:34.711Z,994.57
2018-11-01T09:00:34.714Z,994.52
2018-11-01T09:01:34.806Z,994.54
2018-11-01T09:02:34.701Z,994.63
2018-11-01T09:03:34.683Z,994.61
2018-11-01T09:04:34.654Z,994.63
2018-11-01T09:05:34.641Z,994.63
2018-11-01T09:06:34.644Z,994.62
2018-11-01T09:07:34.781Z,994.66
2018-11-01T09:08:34.638Z,994.65
2018-11-01T09:09:34.600Z,994.66
2018-11-01T09:10:34.738Z,994.65
2018-11-01T09:11:34.593Z,994.69
2018-11-01T09:12:34.599Z,994.71
2018-11-01T09:13:34.595Z,994.78
2018-11-01T09:14:34.624Z,994.75
2018-11-01T09:15:34.530Z,994.77
2018-11-01T09:16:34.522Z,994.79
2018-11-01T09:17:34.514Z,994.82
2018-11-01T09:18:34.503Z,994.83
2018-11-01T09:19:34.515Z,994.82
2018-11-01T09:20:34.500Z,994.86
2018-11-01T09:21:34.471Z,994.84
2018-11-01T09:22:34.461Z,994.85
2018-11-01T09:23:34.446Z,994.88
2018-11-01T09:24:34.435Z,994.86
2018-11-01T09:25:34.454Z,994.87
2018-11-01T09:26:34.438Z,994.81
2018-11-01T09:27:34.404Z,994.81
2018-11-01T09:28:34.399Z,994.78
2018-11-01T09:29:34.386Z,994.72
2018-11-01T09:30:34.369Z,994.71
2018-11-01T09:31:34.380Z,994.72
2018-11-01T09:32:34.353Z,994.75
2018-11-01T09:33:34.340Z,994.78
2018-11-01T09:34:34.335Z,994.79
2018-11-01T09:35:34.361Z,994.79
2018-11-01T09:36:34.331Z,994.80
2018-11-01T09:37:34.302Z,994.83
2018-11-01T09:38:34.282Z,994.86
2018-11-01T09:39:34.277Z,994.86
2018-11-01T09:40:34.269Z,994.83
2018-11-01T09:41:34.260Z,994.85
2018-11-01T09:42:34.257Z,994.82
2018-11-01T09:43:34.231Z,994.82
2018-11-01T09:44:34.221Z,994.82
2018-11-01T09:45:34.212Z,994.80
2018-11-01T09:46:34.470Z,994.79
2018-11-01T09:47:34.454Z,994.77
2018-11-01T09:48:34.172Z,994.76
2018-11-01T09:49:34.166Z,994.79
2018-11-01T09:50:34.161Z,994.73
2018-11-01T09:51:34.160Z,994.76
2018-11-01T09:52:34.129Z,994.80
2018-11-01T09:53:34.119Z,994.80
2018-11-01T09:54:34.110Z,994.81
2018-11-01T09:55:34.161Z,994.82
2018-11-01T09:56:34.224Z,994.89
2018-11-01T09:57:34.082Z,994.95
2018-11-01T09:58:34.078Z,994.95
2018-11-01T09:59:34.048Z,995.00
2018-11-01T10:00:34.038Z,995.05
2018-11-01T10:01:34.048Z,995.04
2018-11-01T10:02:34.016Z,995.02
2018-11-01T10:03:34.012Z,994.98
2018-11-01T10:04:34.000Z,994.94
2018-11-01T10:05:33.994Z,994.94
2018-11-01T10:06:34.005Z,994.85
2018-11-01T10:07:33.960Z,994.88
2018-11-01T10:08:33.956Z,994.88
2018-11-01T10:09:33.963Z,994.92
2018-11-01T10:10:33.959Z,994.87
2018-11-01T10:11:33.942Z,994.86
2018-11-01T10:12:33.917Z,994.89
2018-11-01T10:13:33.903Z,994.90
2018-11-01T10:14:33.950Z,994.87
2018-11-01T10:15:34.068Z,994.90
2018-11-01T10:16:34.017Z,994.90
2018-11-01T10:17:34.165Z,994.90
2018-11-01T10:18:33.942Z,994.91
2018-11-01T10:19:33.834Z,994.89
2018-11-01T10:20:33.839Z,994.90
2018-11-01T10:21:33.901Z,994.90
2018-11-01T10:22:33.855Z,994.93
2018-11-01T10:23:33.793Z,994.95
2018-11-01T10:24:33.780Z,995.00
2018-11-01T10:25:33.793Z,994.96
2018-11-01T10:26:33.779Z,994.97
2018-11-01T10:27:33.798Z,994.96
2018-11-01T10:28:33.739Z,994.96
2018-11-01T10:29:33.743Z,994.94
2018-11-01T10:30:33.719Z,994.91
2018-11-01T10:31:33.705Z,994.89
2018-11-01T10:32:33.704Z,994.83
2018-11-01T10:33:33.695Z,994.87
2018-11-01T10:34:33.706Z,994.88
2018-11-01T10:35:33.662Z,994.89
2018-11-01T10:36:33.657Z,994.91
2018-11-01T10:37:33.759Z,994.88
2018-11-01T10:38:33.630Z,994.83
2018-11-01T10:39:33.635Z,994.82
2018-11-01T10:40:33.655Z,994.85
2018-11-01T10:41:33.593Z,994.88
2018-11-01T10:42:33.586Z,994.82
2018-11-01T10:43:33.573Z,994.84
2018-11-01T10:44:33.560Z,994.84
2018-11-01T10:45:33.565Z,994.82
2018-11-01T10:46:33.547Z,994.80
2018-11-01T10:47:33.586Z,994.82
2018-11-01T10:48:33.535Z,994.78
2018-11-01T10:49:33.629Z,994.78
2018-11-01T10:50:33.497Z,994.83
2018-11-01T10:51:33.478Z,994.84
2018-11-01T10:52:33.534Z,994.84
2018-11-01T10:53:33.487Z,994.90
2018-11-01T10:54:33.463Z,994.88
2018-11-01T10:55:33.461Z,994.85
2018-11-01T10:56:33.428Z,994.85
2018-11-01T10:57:33.426Z,994.83
2018-11-01T10:58:33.407Z,994.84
2018-11-01T10:59:33.422Z,994.81
2018-11-01T11:00:33.546Z,994.77
2018-11-01T11:01:33.373Z,994.76
2018-11-01T11:02:33.363Z,994.76
2018-11-01T11:03:33.347Z,994.74
2018-11-01T11:04:33.355Z,994.78
2018-11-01T11:05:33.345Z,994.73
2018-11-01T11:06:33.373Z,994.75
2018-11-01T11:07:33.308Z,994.70
2018-11-01T11:08:33.298Z,994.67
2018-11-01T11:09:33.309Z,994.70
2018-11-01T11:10:33.276Z,994.62
2018-11-01T11:11:33.258Z,994.64
2018-11-01T11:12:33.255Z,994.59
2018-11-01T11:13:33.255Z,994.58
2018-11-01T11:14:33.338Z,994.57
2018-11-01T11:15:33.242Z,994.51
2018-11-01T11:16:33.225Z,994.56
2018-11-01T11:17:33.199Z,994.55
2018-11-01T11:18:33.217Z,994.52
2018-11-01T11:19:33.190Z,994.49
2018-11-01T11:20:33.333Z,994.44
2018-11-01T11:21:33.158Z,994.44
2018-11-01T11:22:33.144Z,994.41
2018-11-01T11:23:33.134Z,994.42
2018-11-01T11:24:33.117Z,994.39
2018-11-01T11:25:33.125Z,994.38
2018-11-01T11:26:33.094Z,994.35
2018-11-01T11:27:33.093Z,994.40
2018-11-01T11:28:33.080Z,994.44
2018-11-01T11:29:33.066Z,994.44
2018-11-01T11:30:33.197Z,994.48
2018-11-01T11:31:33.042Z,994.44
2018-11-01T11:32:33.030Z,994.42
2018-11-01T11:33:33.037Z,994.36
2018-11-01T11:34:33.026Z,994.31
2018-11-01T11:35:33.073Z,994.25
2018-11-01T11:36:33.006Z,994.24
2018-11-01T11:37:32.975Z,994.19
2018-11-01T11:38:32.979Z,994.18
2018-11-01T11:39:33.009Z,994.19
2018-11-01T11:40:32.962Z,994.17
2018-11-01T11:41:32.943Z,994.20
2018-11-01T11:42:32.931Z,994.18
2018-11-01T11:43:32.911Z,994.14
2018-11-01T11:44:33.626Z,994.15
2018-11-01T11:45:32.907Z,994.06
2018-11-01T11:46:32.889Z,994.03
2018-11-01T11:47:32.891Z,993.99
2018-11-01T11:48:32.861Z,993.98
2018-11-01T11:49:32.864Z,993.88
2018-11-01T11:50:32.857Z,993.85
2018-11-01T11:51:32.983Z,993.88
2018-11-01T11:52:32.921Z,993.80
2018-11-01T11:53:32.802Z,993.81
2018-11-01T11:54:32.852Z,993.80
2018-11-01T11:55:32.780Z,993.75
2018-11-01T11:56:32.769Z,993.81
2018-11-01T11:57:32.792Z,993.82
2018-11-01T11:58:32.982Z,993.92
2018-11-01T11:59:32.894Z,993.92
2018-11-01T12:00:32.739Z,993.99
2018-11-01T12:01:32.743Z,994.00
2018-11-01T12:02:33.198Z,994.03
2018-11-01T12:03:33.082Z,994.03
2018-11-01T12:04:33.116Z,994.03
2018-11-01T12:05:32.772Z,994.03
2018-11-01T12:06:32.947Z,994.01
2018-11-01T12:07:32.702Z,994.02
2018-11-01T12:08:33.015Z,993.98
2018-11-01T12:09:32.639Z,994.01
2018-11-01T12:10:32.778Z,994.04
2018-11-01T12:11:32.609Z,994.05
2018-11-01T12:12:32.596Z,994.07
2018-11-01T12:13:32.596Z,994.06
2018-11-01T12:14:32.598Z,994.07
2018-11-01T12:15:32.559Z,994.05
2018-11-01T12:16:32.590Z,994.09
2018-11-01T12:17:32.782Z,994.04
2018-11-01T12:18:32.551Z,994.00
2018-11-01T12:19:32.651Z,994.02
2018-11-01T12:20:32.678Z,994.02
2018-11-01T12:21:32.515Z,994.02
2018-11-01T12:22:32.683Z,994.02
2018-11-01T12:23:32.974Z,993.98
2018-11-01T12:24:34.130Z,994.01
2018-11-01T12:25:32.625Z,994.04
2018-11-01T12:26:32.605Z,994.05
2018-11-01T12:27:32.461Z,994.02
2018-11-01T12:28:32.581Z,994.04